sensor_id;sensor_type;location;lat;lon;timestamp;P1;durP1;ratioP1;P2;durP2;ratioP2
78027;SDS011;67235;45.638;11.714;2023-09-19T00:01:12;17.98;;;9.02;;
78027;SDS011;67235;45.638;11.714;2023-09-19T00:03:39;16.45;;;8.75;;
78027;SDS011;67235;45.638;11.714;2023-09-19T00:06:07;19.85;;;9.85;;
78027;SDS011;67235;45.638;11.714;2023-09-19T00:08:36;17.97;;;9.23;;
78027;SDS011;67235;45.638;11.714;2023-09-19T00:11:02;18.92;;;9.43;;
78027;SDS011;67235;45.638;11.714;2023-09-19T00:13:29;19.58;;;9.90;;
78027;SDS011;67235;45.638;11.714;2023-09-19T00:15:56;20.17;;;10.13;;
78027;SDS011;67235;45.638;11.714;2023-09-19T00:18:24;20.20;;;9.43;;
78027;SDS011;67235;45.638;11.714;2023-09-19T00:21:00;18.13;;;8.80;;
78027;SDS011;67235;45.638;11.714;2023-09-19T00:23:26;20.20;;;9.82;;
78027;SDS011;67235;45.638;11.714;2023-09-19T00:25:53;18.52;;;9.52;;
78027;SDS011;67235;45.638;11.714;2023-09-19T00:28:22;22.95;;;10.68;;
78027;SDS011;67235;45.638;11.714;2023-09-19T00:30:49;23.35;;;11.02;;
78027;SDS011;67235;45.638;11.714;2023-09-19T00:33:15;21.00;;;10.83;;
78027;SDS011;67235;45.638;11.714;2023-09-19T00:35:48;23.42;;;10.85;;
78027;SDS011;67235;45.638;11.714;2023-09-19T00:38:15;21.60;;;11.10;;
78027;SDS011;67235;45.638;11.714;2023-09-19T00:40:52;21.17;;;10.80;;
78027;SDS011;67235;45.638;11.714;2023-09-19T00:43:25;22.27;;;10.82;;
78027;SDS011;67235;45.638;11.714;2023-09-19T00:45:52;22.27;;;10.53;;
78027;SDS011;67235;45.638;11.714;2023-09-19T00:48:19;21.48;;;10.75;;
78027;SDS011;67235;45.638;11.714;2023-09-19T00:50:47;24.08;;;10.63;;
78027;SDS011;67235;45.638;11.714;2023-09-19T00:53:18;21.10;;;10.18;;
78027;SDS011;67235;45.638;11.714;2023-09-19T00:55:48;21.60;;;10.00;;
78027;SDS011;67235;45.638;11.714;2023-09-19T00:58:17;19.43;;;9.70;;
78027;SDS011;67235;45.638;11.714;2023-09-19T01:00:44;20.85;;;10.02;;
78027;SDS011;67235;45.638;11.714;2023-09-19T01:03:12;20.48;;;10.55;;
78027;SDS011;67235;45.638;11.714;2023-09-19T01:05:42;20.83;;;10.27;;
78027;SDS011;67235;45.638;11.714;2023-09-19T01:08:10;15.57;;;7.88;;
78027;SDS011;67235;45.638;11.714;2023-09-19T01:10:44;18.20;;;8.55;;
78027;SDS011;67235;45.638;11.714;2023-09-19T01:13:29;18.10;;;9.02;;
78027;SDS011;67235;45.638;11.714;2023-09-19T01:21:30;16.73;;;9.45;;
78027;SDS011;67235;45.638;11.714;2023-09-19T01:24:16;21.17;;;9.00;;
78027;SDS011;67235;45.638;11.714;2023-09-19T01:30:06;19.75;;;9.23;;
78027;SDS011;67235;45.638;11.714;2023-09-19T01:32:50;21.15;;;8.80;;
78027;SDS011;67235;45.638;11.714;2023-09-19T01:35:17;19.35;;;9.88;;
78027;SDS011;67235;45.638;11.714;2023-09-19T01:37:44;17.40;;;9.07;;
78027;SDS011;67235;45.638;11.714;2023-09-19T01:40:11;15.70;;;8.93;;
78027;SDS011;67235;45.638;11.714;2023-09-19T01:42:53;19.55;;;9.60;;
78027;SDS011;67235;45.638;11.714;2023-09-19T01:46:04;20.83;;;8.35;;
78027;SDS011;67235;45.638;11.714;2023-09-19T01:51:12;19.30;;;9.05;;
78027;SDS011;67235;45.638;11.714;2023-09-19T01:59:47;18.73;;;9.13;;
78027;SDS011;67235;45.638;11.714;2023-09-19T02:02:17;18.90;;;8.70;;
78027;SDS011;67235;45.638;11.714;2023-09-19T02:04:47;20.70;;;9.93;;
78027;SDS011;67235;45.638;11.714;2023-09-19T02:07:14;17.35;;;8.75;;
78027;SDS011;67235;45.638;11.714;2023-09-19T02:09:40;16.80;;;8.60;;
78027;SDS011;67235;45.638;11.714;2023-09-19T02:12:08;19.70;;;9.07;;
78027;SDS011;67235;45.638;11.714;2023-09-19T02:14:34;21.10;;;8.90;;
78027;SDS011;67235;45.638;11.714;2023-09-19T02:17:01;20.65;;;8.73;;
78027;SDS011;67235;45.638;11.714;2023-09-19T02:19:32;16.67;;;8.68;;
78027;SDS011;67235;45.638;11.714;2023-09-19T02:21:59;17.80;;;9.20;;
78027;SDS011;67235;45.638;11.714;2023-09-19T02:24:28;20.63;;;9.75;;
78027;SDS011;67235;45.638;11.714;2023-09-19T02:26:54;19.63;;;8.57;;
78027;SDS011;67235;45.638;11.714;2023-09-19T02:29:20;15.80;;;8.60;;
78027;SDS011;67235;45.638;11.714;2023-09-19T02:31:47;15.75;;;8.90;;
78027;SDS011;67235;45.638;11.714;2023-09-19T02:34:13;16.15;;;8.55;;
78027;SDS011;67235;45.638;11.714;2023-09-19T02:36:41;16.73;;;8.77;;
78027;SDS011;67235;45.638;11.714;2023-09-19T02:39:09;15.88;;;8.77;;
78027;SDS011;67235;45.638;11.714;2023-09-19T02:41:36;18.02;;;9.55;;
78027;SDS011;67235;45.638;11.714;2023-09-19T02:44:02;17.30;;;9.05;;
78027;SDS011;67235;45.638;11.714;2023-09-19T02:46:32;20.92;;;9.70;;
78027;SDS011;67235;45.638;11.714;2023-09-19T02:48:58;22.20;;;9.70;;
78027;SDS011;67235;45.638;11.714;2023-09-19T02:51:23;21.30;;;9.70;;
78027;SDS011;67235;45.638;11.714;2023-09-19T02:53:50;16.73;;;8.70;;
78027;SDS011;67235;45.638;11.714;2023-09-19T02:56:19;17.00;;;9.35;;
78027;SDS011;67235;45.638;11.714;2023-09-19T02:58:45;17.55;;;8.88;;
78027;SDS011;67235;45.638;11.714;2023-09-19T03:01:11;15.95;;;7.88;;
78027;SDS011;67235;45.638;11.714;2023-09-19T03:03:37;18.58;;;7.70;;
78027;SDS011;67235;45.638;11.714;2023-09-19T03:06:07;19.10;;;9.20;;
78027;SDS011;67235;45.638;11.714;2023-09-19T03:08:34;16.35;;;8.30;;
78027;SDS011;67235;45.638;11.714;2023-09-19T03:11:07;19.15;;;8.77;;
78027;SDS011;67235;45.638;11.714;2023-09-19T03:13:36;15.82;;;8.45;;
78027;SDS011;67235;45.638;11.714;2023-09-19T03:16:03;16.40;;;8.48;;
78027;SDS011;67235;45.638;11.714;2023-09-19T03:18:34;18.83;;;7.40;;
78027;SDS011;67235;45.638;11.714;2023-09-19T03:21:00;16.40;;;8.32;;
78027;SDS011;67235;45.638;11.714;2023-09-19T03:23:26;17.88;;;8.82;;
78027;SDS011;67235;45.638;11.714;2023-09-19T03:25:53;18.75;;;8.77;;
78027;SDS011;67235;45.638;11.714;2023-09-19T03:28:19;18.45;;;8.57;;
78027;SDS011;67235;45.638;11.714;2023-09-19T03:30:46;20.20;;;8.63;;
78027;SDS011;67235;45.638;11.714;2023-09-19T03:33:22;17.83;;;8.20;;
78027;SDS011;67235;45.638;11.714;2023-09-19T03:35:52;17.98;;;8.70;;
78027;SDS011;67235;45.638;11.714;2023-09-19T03:38:19;17.85;;;8.00;;
78027;SDS011;67235;45.638;11.714;2023-09-19T03:40:45;15.55;;;7.97;;
78027;SDS011;67235;45.638;11.714;2023-09-19T03:43:11;17.20;;;7.97;;
78027;SDS011;67235;45.638;11.714;2023-09-19T03:45:36;15.93;;;7.97;;
78027;SDS011;67235;45.638;11.714;2023-09-19T03:48:08;16.45;;;8.05;;
78027;SDS011;67235;45.638;11.714;2023-09-19T03:50:36;14.60;;;7.78;;
78027;SDS011;67235;45.638;11.714;2023-09-19T03:53:02;16.60;;;8.18;;
78027;SDS011;67235;45.638;11.714;2023-09-19T03:55:28;14.90;;;7.85;;
78027;SDS011;67235;45.638;11.714;2023-09-19T03:57:58;15.35;;;7.35;;
78027;SDS011;67235;45.638;11.714;2023-09-19T04:00:24;16.00;;;7.65;;
78027;SDS011;67235;45.638;11.714;2023-09-19T04:02:51;13.77;;;7.22;;
78027;SDS011;67235;45.638;11.714;2023-09-19T04:05:18;13.95;;;6.65;;
78027;SDS011;67235;45.638;11.714;2023-09-19T04:07:44;20.20;;;7.50;;
78027;SDS011;67235;45.638;11.714;2023-09-19T04:10:10;14.30;;;7.72;;
78027;SDS011;67235;45.638;11.714;2023-09-19T04:12:39;14.27;;;7.30;;
78027;SDS011;67235;45.638;11.714;2023-09-19T04:15:06;12.55;;;6.78;;
78027;SDS011;67235;45.638;11.714;2023-09-19T04:17:32;11.33;;;6.57;;
78027;SDS011;67235;45.638;11.714;2023-09-19T04:19:59;14.05;;;6.40;;
78027;SDS011;67235;45.638;11.714;2023-09-19T04:22:25;12.80;;;6.28;;
78027;SDS011;67235;45.638;11.714;2023-09-19T04:24:51;11.40;;;6.30;;
78027;SDS011;67235;45.638;11.714;2023-09-19T04:27:16;12.50;;;6.73;;
78027;SDS011;67235;45.638;11.714;2023-09-19T04:29:44;12.38;;;6.15;;
78027;SDS011;67235;45.638;11.714;2023-09-19T04:32:10;12.13;;;5.93;;
78027;SDS011;67235;45.638;11.714;2023-09-19T04:34:38;10.63;;;5.50;;
78027;SDS011;67235;45.638;11.714;2023-09-19T04:37:04;11.00;;;6.07;;
78027;SDS011;67235;45.638;11.714;2023-09-19T04:39:30;11.80;;;5.30;;
78027;SDS011;67235;45.638;11.714;2023-09-19T04:41:56;11.07;;;5.63;;
78027;SDS011;67235;45.638;11.714;2023-09-19T04:44:23;8.88;;;4.90;;
78027;SDS011;67235;45.638;11.714;2023-09-19T04:46:49;11.93;;;5.28;;
78027;SDS011;67235;45.638;11.714;2023-09-19T04:49:15;13.97;;;5.53;;
78027;SDS011;67235;45.638;11.714;2023-09-19T04:51:40;10.05;;;5.20;;
78027;SDS011;67235;45.638;11.714;2023-09-19T04:54:07;10.13;;;5.00;;
78027;SDS011;67235;45.638;11.714;2023-09-19T04:56:33;11.17;;;5.87;;
78027;SDS011;67235;45.638;11.714;2023-09-19T04:58:59;9.35;;;4.78;;
78027;SDS011;67235;45.638;11.714;2023-09-19T05:01:25;14.35;;;5.10;;
78027;SDS011;67235;45.638;11.714;2023-09-19T05:03:52;10.75;;;4.65;;
78027;SDS011;67235;45.638;11.714;2023-09-19T05:06:19;10.70;;;4.93;;
78027;SDS011;67235;45.638;11.714;2023-09-19T05:08:51;10.48;;;4.88;;
78027;SDS011;67235;45.638;11.714;2023-09-19T05:11:17;13.07;;;5.18;;
78027;SDS011;67235;45.638;11.714;2023-09-19T05:13:44;12.45;;;5.68;;
78027;SDS011;67235;45.638;11.714;2023-09-19T05:16:10;13.87;;;5.57;;
78027;SDS011;67235;45.638;11.714;2023-09-19T05:18:36;11.52;;;5.53;;
78027;SDS011;67235;45.638;11.714;2023-09-19T05:21:02;10.40;;;5.50;;
78027;SDS011;67235;45.638;11.714;2023-09-19T05:23:28;9.15;;;4.45;;
78027;SDS011;67235;45.638;11.714;2023-09-19T05:25:55;11.73;;;5.15;;
78027;SDS011;67235;45.638;11.714;2023-09-19T05:28:23;9.90;;;4.55;;
78027;SDS011;67235;45.638;11.714;2023-09-19T05:30:49;9.05;;;4.50;;
78027;SDS011;67235;45.638;11.714;2023-09-19T05:33:16;9.60;;;5.00;;
78027;SDS011;67235;45.638;11.714;2023-09-19T05:35:44;9.07;;;5.20;;
78027;SDS011;67235;45.638;11.714;2023-09-19T05:38:12;8.73;;;4.88;;
78027;SDS011;67235;45.638;11.714;2023-09-19T05:40:44;8.77;;;4.70;;
78027;SDS011;67235;45.638;11.714;2023-09-19T05:43:11;10.63;;;4.75;;
78027;SDS011;67235;45.638;11.714;2023-09-19T05:45:41;12.47;;;4.90;;
78027;SDS011;67235;45.638;11.714;2023-09-19T05:48:08;10.00;;;5.20;;
78027;SDS011;67235;45.638;11.714;2023-09-19T05:50:41;9.18;;;4.65;;
78027;SDS011;67235;45.638;11.714;2023-09-19T05:53:08;10.50;;;5.40;;
78027;SDS011;67235;45.638;11.714;2023-09-19T05:55:37;9.48;;;5.13;;
78027;SDS011;67235;45.638;11.714;2023-09-19T05:58:03;10.45;;;5.30;;
78027;SDS011;67235;45.638;11.714;2023-09-19T06:00:30;10.95;;;5.15;;
78027;SDS011;67235;45.638;11.714;2023-09-19T06:02:58;10.63;;;5.13;;
78027;SDS011;67235;45.638;11.714;2023-09-19T06:05:25;11.65;;;4.78;;
78027;SDS011;67235;45.638;11.714;2023-09-19T06:07:53;10.30;;;4.80;;
78027;SDS011;67235;45.638;11.714;2023-09-19T06:10:19;8.63;;;4.47;;
78027;SDS011;67235;45.638;11.714;2023-09-19T06:12:49;12.15;;;4.60;;
78027;SDS011;67235;45.638;11.714;2023-09-19T06:15:20;8.80;;;5.10;;
78027;SDS011;67235;45.638;11.714;2023-09-19T06:17:54;12.80;;;4.80;;
78027;SDS011;67235;45.638;11.714;2023-09-19T06:20:23;10.98;;;5.40;;
78027;SDS011;67235;45.638;11.714;2023-09-19T06:22:50;11.55;;;5.15;;
78027;SDS011;67235;45.638;11.714;2023-09-19T06:25:17;10.02;;;4.60;;
78027;SDS011;67235;45.638;11.714;2023-09-19T06:27:49;9.90;;;4.97;;
78027;SDS011;67235;45.638;11.714;2023-09-19T06:30:24;9.00;;;4.50;;
78027;SDS011;67235;45.638;11.714;2023-09-19T06:32:55;9.63;;;4.60;;
78027;SDS011;67235;45.638;11.714;2023-09-19T06:35:24;9.57;;;4.50;;
78027;SDS011;67235;45.638;11.714;2023-09-19T06:37:52;9.68;;;4.70;;
78027;SDS011;67235;45.638;11.714;2023-09-19T06:40:19;11.07;;;5.13;;
78027;SDS011;67235;45.638;11.714;2023-09-19T06:42:45;9.30;;;4.57;;
78027;SDS011;67235;45.638;11.714;2023-09-19T06:45:15;12.13;;;5.10;;
78027;SDS011;67235;45.638;11.714;2023-09-19T06:47:48;10.85;;;4.30;;
78027;SDS011;67235;45.638;11.714;2023-09-19T06:50:15;12.70;;;6.18;;
78027;SDS011;67235;45.638;11.714;2023-09-19T06:52:46;11.48;;;6.15;;
78027;SDS011;67235;45.638;11.714;2023-09-19T06:55:18;12.30;;;5.75;;
78027;SDS011;67235;45.638;11.714;2023-09-19T06:57:45;9.47;;;5.10;;
78027;SDS011;67235;45.638;11.714;2023-09-19T07:00:12;11.70;;;5.95;;
78027;SDS011;67235;45.638;11.714;2023-09-19T07:05:30;9.73;;;4.60;;
78027;SDS011;67235;45.638;11.714;2023-09-19T07:07:57;8.75;;;4.30;;
78027;SDS011;67235;45.638;11.714;2023-09-19T07:10:24;8.37;;;4.10;;
78027;SDS011;67235;45.638;11.714;2023-09-19T07:15:24;8.00;;;3.72;;
78027;SDS011;67235;45.638;11.714;2023-09-19T07:17:53;9.02;;;3.72;;
78027;SDS011;67235;45.638;11.714;2023-09-19T07:20:21;9.15;;;3.75;;
78027;SDS011;67235;45.638;11.714;2023-09-19T07:22:51;7.40;;;3.80;;
78027;SDS011;67235;45.638;11.714;2023-09-19T07:25:17;6.22;;;3.30;;
78027;SDS011;67235;45.638;11.714;2023-09-19T07:27:43;7.82;;;4.00;;
78027;SDS011;67235;45.638;11.714;2023-09-19T07:30:09;7.40;;;3.93;;
78027;SDS011;67235;45.638;11.714;2023-09-19T07:32:36;8.10;;;4.07;;
78027;SDS011;67235;45.638;11.714;2023-09-19T07:35:03;8.95;;;3.80;;
78027;SDS011;67235;45.638;11.714;2023-09-19T07:37:33;6.93;;;3.83;;
78027;SDS011;67235;45.638;11.714;2023-09-19T07:39:59;6.55;;;3.45;;
78027;SDS011;67235;45.638;11.714;2023-09-19T07:42:35;7.43;;;3.90;;
78027;SDS011;67235;45.638;11.714;2023-09-19T07:45:06;7.25;;;3.63;;
78027;SDS011;67235;45.638;11.714;2023-09-19T07:47:33;8.88;;;3.80;;
78027;SDS011;67235;45.638;11.714;2023-09-19T07:49:59;7.30;;;3.47;;
78027;SDS011;67235;45.638;11.714;2023-09-19T07:52:28;5.55;;;3.33;;
78027;SDS011;67235;45.638;11.714;2023-09-19T07:54:54;8.07;;;3.10;;
78027;SDS011;67235;45.638;11.714;2023-09-19T07:57:22;9.05;;;3.40;;
78027;SDS011;67235;45.638;11.714;2023-09-19T07:59:48;6.80;;;3.13;;
78027;SDS011;67235;45.638;11.714;2023-09-19T08:02:14;7.00;;;2.83;;
78027;SDS011;67235;45.638;11.714;2023-09-19T08:04:43;8.32;;;2.85;;
78027;SDS011;67235;45.638;11.714;2023-09-19T08:07:11;7.45;;;2.75;;
78027;SDS011;67235;45.638;11.714;2023-09-19T08:09:38;5.78;;;2.65;;
78027;SDS011;67235;45.638;11.714;2023-09-19T08:12:05;6.78;;;2.70;;
78027;SDS011;67235;45.638;11.714;2023-09-19T08:14:33;7.67;;;3.40;;
78027;SDS011;67235;45.638;11.714;2023-09-19T08:16:59;6.80;;;3.63;;
78027;SDS011;67235;45.638;11.714;2023-09-19T08:19:25;7.90;;;4.32;;
78027;SDS011;67235;45.638;11.714;2023-09-19T08:21:57;9.70;;;4.85;;
78027;SDS011;67235;45.638;11.714;2023-09-19T08:24:26;8.88;;;4.88;;
78027;SDS011;67235;45.638;11.714;2023-09-19T08:26:54;7.77;;;4.50;;
78027;SDS011;67235;45.638;11.714;2023-09-19T08:29:21;8.10;;;3.85;;
78027;SDS011;67235;45.638;11.714;2023-09-19T08:31:53;8.60;;;4.00;;
78027;SDS011;67235;45.638;11.714;2023-09-19T08:34:26;6.95;;;3.65;;
78027;SDS011;67235;45.638;11.714;2023-09-19T08:36:52;6.28;;;3.80;;
78027;SDS011;67235;45.638;11.714;2023-09-19T08:39:25;10.77;;;4.40;;
78027;SDS011;67235;45.638;11.714;2023-09-19T08:41:57;8.23;;;4.65;;
78027;SDS011;67235;45.638;11.714;2023-09-19T08:44:24;9.07;;;4.38;;
78027;SDS011;67235;45.638;11.714;2023-09-19T08:46:53;8.00;;;4.50;;
78027;SDS011;67235;45.638;11.714;2023-09-19T08:50:23;8.75;;;4.80;;
78027;SDS011;67235;45.638;11.714;2023-09-19T08:52:25;10.23;;;5.47;;
78027;SDS011;67235;45.638;11.714;2023-09-19T08:54:53;10.13;;;5.57;;
78027;SDS011;67235;45.638;11.714;2023-09-19T08:57:24;8.88;;;5.95;;
78027;SDS011;67235;45.638;11.714;2023-09-19T08:59:54;9.18;;;5.10;;
78027;SDS011;67235;45.638;11.714;2023-09-19T09:02:22;8.60;;;5.30;;
78027;SDS011;67235;45.638;11.714;2023-09-19T09:04:48;8.37;;;4.57;;
78027;SDS011;67235;45.638;11.714;2023-09-19T09:07:15;7.97;;;4.65;;
78027;SDS011;67235;45.638;11.714;2023-09-19T09:09:44;8.93;;;4.93;;
78027;SDS011;67235;45.638;11.714;2023-09-19T09:12:14;10.35;;;5.10;;
78027;SDS011;67235;45.638;11.714;2023-09-19T09:14:44;7.95;;;4.57;;
78027;SDS011;67235;45.638;11.714;2023-09-19T09:17:14;8.23;;;5.50;;
78027;SDS011;67235;45.638;11.714;2023-09-19T09:19:40;7.70;;;4.90;;
78027;SDS011;67235;45.638;11.714;2023-09-19T09:22:08;8.82;;;5.55;;
78027;SDS011;67235;45.638;11.714;2023-09-19T09:24:35;9.38;;;5.63;;
78027;SDS011;67235;45.638;11.714;2023-09-19T09:27:06;8.73;;;4.90;;
78027;SDS011;67235;45.638;11.714;2023-09-19T09:29:46;8.80;;;4.83;;
78027;SDS011;67235;45.638;11.714;2023-09-19T09:32:25;9.65;;;4.85;;
78027;SDS011;67235;45.638;11.714;2023-09-19T09:34:54;9.27;;;4.88;;
78027;SDS011;67235;45.638;11.714;2023-09-19T09:37:22;9.50;;;4.63;;
78027;SDS011;67235;45.638;11.714;2023-09-19T09:42:31;10.13;;;4.90;;
78027;SDS011;67235;45.638;11.714;2023-09-19T09:45:22;7.80;;;4.70;;
78027;SDS011;67235;45.638;11.714;2023-09-19T09:47:58;11.95;;;5.68;;
78027;SDS011;67235;45.638;11.714;2023-09-19T09:50:32;11.05;;;4.40;;
78027;SDS011;67235;45.638;11.714;2023-09-19T09:53:21;9.05;;;4.20;;
78027;SDS011;67235;45.638;11.714;2023-09-19T09:56:08;8.00;;;4.00;;
78027;SDS011;67235;45.638;11.714;2023-09-19T09:58:35;7.10;;;4.05;;
78027;SDS011;67235;45.638;11.714;2023-09-19T10:01:03;7.50;;;4.25;;
78027;SDS011;67235;45.638;11.714;2023-09-19T10:03:40;8.60;;;4.40;;
78027;SDS011;67235;45.638;11.714;2023-09-19T10:06:14;15.05;;;5.95;;
78027;SDS011;67235;45.638;11.714;2023-09-19T10:12:04;7.90;;;3.53;;
78027;SDS011;67235;45.638;11.714;2023-09-19T10:14:34;10.80;;;4.40;;
78027;SDS011;67235;45.638;11.714;2023-09-19T10:17:04;8.50;;;3.78;;
78027;SDS011;67235;45.638;11.714;2023-09-19T10:19:37;7.43;;;4.38;;
78027;SDS011;67235;45.638;11.714;2023-09-19T10:22:14;7.43;;;4.20;;
78027;SDS011;67235;45.638;11.714;2023-09-19T10:24:41;8.18;;;3.78;;
78027;SDS011;67235;45.638;11.714;2023-09-19T10:27:11;9.15;;;3.92;;
78027;SDS011;67235;45.638;11.714;2023-09-19T10:29:39;9.77;;;3.72;;
78027;SDS011;67235;45.638;11.714;2023-09-19T10:32:06;8.57;;;4.05;;
78027;SDS011;67235;45.638;11.714;2023-09-19T10:34:34;8.70;;;4.03;;
78027;SDS011;67235;45.638;11.714;2023-09-19T10:37:02;7.18;;;3.60;;
78027;SDS011;67235;45.638;11.714;2023-09-19T10:39:32;8.38;;;3.92;;
78027;SDS011;67235;45.638;11.714;2023-09-19T10:42:01;8.25;;;3.33;;
78027;SDS011;67235;45.638;11.714;2023-09-19T10:44:31;8.15;;;3.83;;
78027;SDS011;67235;45.638;11.714;2023-09-19T10:46:58;6.77;;;3.13;;
78027;SDS011;67235;45.638;11.714;2023-09-19T10:49:24;7.45;;;3.92;;
78027;SDS011;67235;45.638;11.714;2023-09-19T10:51:54;9.10;;;4.43;;
78027;SDS011;67235;45.638;11.714;2023-09-19T10:54:26;7.00;;;4.03;;
78027;SDS011;67235;45.638;11.714;2023-09-19T10:56:57;9.63;;;4.25;;
78027;SDS011;67235;45.638;11.714;2023-09-19T10:59:24;9.13;;;3.97;;
78027;SDS011;67235;45.638;11.714;2023-09-19T11:01:51;9.00;;;4.20;;
78027;SDS011;67235;45.638;11.714;2023-09-19T11:07:00;6.93;;;3.72;;
78027;SDS011;67235;45.638;11.714;2023-09-19T11:12:12;8.00;;;3.70;;
78027;SDS011;67235;45.638;11.714;2023-09-19T11:15:01;10.05;;;4.40;;
78027;SDS011;67235;45.638;11.714;2023-09-19T11:17:34;7.82;;;4.38;;
78027;SDS011;67235;45.638;11.714;2023-09-19T11:30:38;7.28;;;3.85;;
78027;SDS011;67235;45.638;11.714;2023-09-19T11:33:18;8.43;;;3.70;;
78027;SDS011;67235;45.638;11.714;2023-09-19T11:35:58;8.27;;;3.78;;
78027;SDS011;67235;45.638;11.714;2023-09-19T11:41:36;9.32;;;3.60;;
78027;SDS011;67235;45.638;11.714;2023-09-19T11:49:26;8.90;;;3.63;;
78027;SDS011;67235;45.638;11.714;2023-09-19T11:51:57;6.20;;;3.30;;
78027;SDS011;67235;45.638;11.714;2023-09-19T11:54:26;8.43;;;3.10;;
78027;SDS011;67235;45.638;11.714;2023-09-19T11:56:57;6.95;;;3.17;;
78027;SDS011;67235;45.638;11.714;2023-09-19T11:59:24;6.72;;;3.17;;
78027;SDS011;67235;45.638;11.714;2023-09-19T12:02:01;7.95;;;3.20;;
78027;SDS011;67235;45.638;11.714;2023-09-19T12:04:34;8.80;;;3.23;;
78027;SDS011;67235;45.638;11.714;2023-09-19T12:07:09;8.25;;;3.40;;
78027;SDS011;67235;45.638;11.714;2023-09-19T12:09:48;6.70;;;3.22;;
78027;SDS011;67235;45.638;11.714;2023-09-19T12:12:19;7.55;;;3.33;;
78027;SDS011;67235;45.638;11.714;2023-09-19T12:14:49;7.57;;;3.50;;
78027;SDS011;67235;45.638;11.714;2023-09-19T12:17:16;5.90;;;3.00;;
78027;SDS011;67235;45.638;11.714;2023-09-19T12:19:56;8.15;;;3.72;;
78027;SDS011;67235;45.638;11.714;2023-09-19T12:22:24;8.27;;;3.47;;
78027;SDS011;67235;45.638;11.714;2023-09-19T12:25:05;6.88;;;3.40;;
78027;SDS011;67235;45.638;11.714;2023-09-19T12:27:41;7.82;;;3.08;;
78027;SDS011;67235;45.638;11.714;2023-09-19T12:30:13;7.87;;;3.43;;
78027;SDS011;67235;45.638;11.714;2023-09-19T12:32:41;5.50;;;3.17;;
78027;SDS011;67235;45.638;11.714;2023-09-19T12:35:08;6.63;;;3.60;;
78027;SDS011;67235;45.638;11.714;2023-09-19T12:37:38;8.00;;;3.63;;
78027;SDS011;67235;45.638;11.714;2023-09-19T12:40:13;9.85;;;3.28;;
78027;SDS011;67235;45.638;11.714;2023-09-19T12:42:42;7.60;;;3.43;;
78027;SDS011;67235;45.638;11.714;2023-09-19T12:45:09;8.00;;;3.40;;
78027;SDS011;67235;45.638;11.714;2023-09-19T12:47:38;7.72;;;3.30;;
78027;SDS011;67235;45.638;11.714;2023-09-19T12:50:09;6.20;;;3.08;;
78027;SDS011;67235;45.638;11.714;2023-09-19T12:52:40;6.57;;;3.65;;
78027;SDS011;67235;45.638;11.714;2023-09-19T12:55:28;8.13;;;3.40;;
78027;SDS011;67235;45.638;11.714;2023-09-19T12:57:59;7.85;;;3.08;;
78027;SDS011;67235;45.638;11.714;2023-09-19T13:00:36;8.65;;;3.70;;
78027;SDS011;67235;45.638;11.714;2023-09-19T13:03:13;6.35;;;3.00;;
78027;SDS011;67235;45.638;11.714;2023-09-19T13:05:49;5.85;;;2.72;;
78027;SDS011;67235;45.638;11.714;2023-09-19T13:08:27;8.07;;;2.70;;
78027;SDS011;67235;45.638;11.714;2023-09-19T13:11:06;5.45;;;2.67;;
78027;SDS011;67235;45.638;11.714;2023-09-19T13:19:44;7.45;;;3.28;;
78027;SDS011;67235;45.638;11.714;2023-09-19T13:25:06;8.70;;;3.08;;
78027;SDS011;67235;45.638;11.714;2023-09-19T13:27:38;6.72;;;2.88;;
78027;SDS011;67235;45.638;11.714;2023-09-19T13:30:09;9.07;;;3.20;;
78027;SDS011;67235;45.638;11.714;2023-09-19T13:32:36;5.63;;;2.95;;
78027;SDS011;67235;45.638;11.714;2023-09-19T13:35:03;8.30;;;3.30;;
78027;SDS011;67235;45.638;11.714;2023-09-19T13:37:30;5.70;;;2.92;;
78027;SDS011;67235;45.638;11.714;2023-09-19T13:40:09;8.48;;;3.10;;
78027;SDS011;67235;45.638;11.714;2023-09-19T13:42:36;8.10;;;3.40;;
78027;SDS011;67235;45.638;11.714;2023-09-19T13:45:03;8.50;;;3.80;;
78027;SDS011;67235;45.638;11.714;2023-09-19T13:47:32;6.07;;;2.90;;
78027;SDS011;67235;45.638;11.714;2023-09-19T13:49:59;8.35;;;3.30;;
78027;SDS011;67235;45.638;11.714;2023-09-19T13:52:27;6.35;;;2.90;;
78027;SDS011;67235;45.638;11.714;2023-09-19T13:54:55;8.73;;;3.42;;
78027;SDS011;67235;45.638;11.714;2023-09-19T13:57:25;7.25;;;3.08;;
78027;SDS011;67235;45.638;11.714;2023-09-19T13:59:53;11.07;;;3.27;;
78027;SDS011;67235;45.638;11.714;2023-09-19T14:02:20;8.65;;;3.00;;
78027;SDS011;67235;45.638;11.714;2023-09-19T14:04:49;8.20;;;3.22;;
78027;SDS011;67235;45.638;11.714;2023-09-19T14:07:17;7.63;;;3.25;;
78027;SDS011;67235;45.638;11.714;2023-09-19T14:09:45;6.85;;;3.10;;
78027;SDS011;67235;45.638;11.714;2023-09-19T14:12:11;7.90;;;3.10;;
78027;SDS011;67235;45.638;11.714;2023-09-19T14:14:38;7.78;;;3.00;;
78027;SDS011;67235;45.638;11.714;2023-09-19T14:17:04;5.63;;;2.63;;
78027;SDS011;67235;45.638;11.714;2023-09-19T14:19:32;7.63;;;2.88;;
78027;SDS011;67235;45.638;11.714;2023-09-19T14:21:58;5.83;;;2.90;;
78027;SDS011;67235;45.638;11.714;2023-09-19T14:24:25;6.47;;;2.80;;
78027;SDS011;67235;45.638;11.714;2023-09-19T14:26:51;8.20;;;2.80;;
78027;SDS011;67235;45.638;11.714;2023-09-19T14:29:17;7.82;;;3.00;;
78027;SDS011;67235;45.638;11.714;2023-09-19T14:31:44;8.60;;;2.50;;
78027;SDS011;67235;45.638;11.714;2023-09-19T14:34:10;8.40;;;3.70;;
78027;SDS011;67235;45.638;11.714;2023-09-19T14:36:36;5.82;;;2.78;;
78027;SDS011;67235;45.638;11.714;2023-09-19T14:39:06;4.67;;;2.13;;
78027;SDS011;67235;45.638;11.714;2023-09-19T14:41:33;5.75;;;2.78;;
78027;SDS011;67235;45.638;11.714;2023-09-19T14:43:59;5.55;;;2.38;;
78027;SDS011;67235;45.638;11.714;2023-09-19T14:46:27;6.47;;;2.72;;
78027;SDS011;67235;45.638;11.714;2023-09-19T14:48:53;7.70;;;2.70;;
78027;SDS011;67235;45.638;11.714;2023-09-19T14:51:19;6.83;;;2.80;;
78027;SDS011;67235;45.638;11.714;2023-09-19T14:53:45;6.18;;;2.78;;
78027;SDS011;67235;45.638;11.714;2023-09-19T14:56:12;5.63;;;2.42;;
78027;SDS011;67235;45.638;11.714;2023-09-19T14:58:41;6.85;;;2.65;;
78027;SDS011;67235;45.638;11.714;2023-09-19T15:01:10;8.87;;;2.63;;
78027;SDS011;67235;45.638;11.714;2023-09-19T15:03:38;6.85;;;2.60;;
78027;SDS011;67235;45.638;11.714;2023-09-19T15:06:05;7.72;;;3.17;;
78027;SDS011;67235;45.638;11.714;2023-09-19T15:08:34;7.78;;;2.70;;
78027;SDS011;67235;45.638;11.714;2023-09-19T15:11:03;9.52;;;3.10;;
78027;SDS011;67235;45.638;11.714;2023-09-19T15:13:31;7.30;;;2.73;;
78027;SDS011;67235;45.638;11.714;2023-09-19T15:16:04;5.55;;;2.55;;
78027;SDS011;67235;45.638;11.714;2023-09-19T15:18:34;7.55;;;2.60;;
78027;SDS011;67235;45.638;11.714;2023-09-19T15:21:05;6.45;;;3.05;;
78027;SDS011;67235;45.638;11.714;2023-09-19T15:23:32;8.98;;;2.92;;
78027;SDS011;67235;45.638;11.714;2023-09-19T15:26:05;5.90;;;3.13;;
78027;SDS011;67235;45.638;11.714;2023-09-19T15:28:33;7.90;;;2.80;;
78027;SDS011;67235;45.638;11.714;2023-09-19T15:33:35;9.10;;;2.90;;
78027;SDS011;67235;45.638;11.714;2023-09-19T15:36:09;6.45;;;2.70;;
78027;SDS011;67235;45.638;11.714;2023-09-19T15:38:56;6.50;;;2.53;;
78027;SDS011;67235;45.638;11.714;2023-09-19T15:41:26;8.15;;;2.60;;
78027;SDS011;67235;45.638;11.714;2023-09-19T15:43:56;6.70;;;2.20;;
78027;SDS011;67235;45.638;11.714;2023-09-19T15:46:29;6.80;;;2.20;;